Berlin — 9HA2295 — position and weather

sailwx.info

Track history (hours):
 
Tides and Currents Weather Stations Pressure Air Temp Water Temp Dewpoint Dewpoint Depression Visibility Wind Speed Wind Dir Waves Ship Positions

Berlin

Last reported at 2017-Jun-23 19:32 UTC. Time now 2017-Jun-23 20:36 UTC.
Position N 61°55' E 004°25'.

Length 140 m; draft 5.1 m.

Type: Ship. MMSI: 248277000.

Date/timePositionNaut miles runAvg speedWind from/ knotsBaromVisibWave heightAir tempDewpointWater temp
2017-Jun-23 19:32N 61°55' E 004°25'013.5
2017-Jun-23 19:30N 61°55' E 004°26'713.5
2017-Jun-23 19:00N 62°01' E 004°34'713.5
2017-Jun-23 18:30N 62°07' E 004°43'713.7
2017-Jun-23 18:00N 62°12' E 004°51'713.3
2017-Jun-23 17:30N 62°18' E 004°59'713.5
2017-Jun-23 17:00N 62°22' E 005°10'714.4
2017-Jun-23 16:30N 62°26' E 005°23'714.7
2017-Jun-23 16:00N 62°30' E 005°37'714.6
2017-Jun-23 15:30N 62°28' E 005°52'611.5
2017-Jun-23 15:01N 62°25' E 006°03'1414.2
2017-Jun-23 14:00N 62°26' E 006°33'714.7
2017-Jun-23 13:30N 62°27' E 006°49'713.6
2017-Jun-23 13:00N 62°21' E 006°56'714.6
2017-Jun-23 12:30N 62°14' E 007°01'713.8
2017-Jun-23 12:00N 62°07' E 006°57'510.0
2017-Jun-23 11:30N 62°07' E 007°08'2 3.6
2017-Jun-23 11:00N 62°06' E 007°11'0 0.0
2017-Jun-23 10:30N 62°06' E 007°11'0 0.1
2017-Jun-23 10:00N 62°06' E 007°11'0 0.0
2017-Jun-23 09:30N 62°06' E 007°11'0 0.0
2017-Jun-23 09:00N 62°06' E 007°11'0 0.0
2017-Jun-23 08:30N 62°06' E 007°11'0 0.0
2017-Jun-23 08:00N 62°06' E 007°11'0 0.0
2017-Jun-23 07:30N 62°06' E 007°11'0 0.0
2017-Jun-23 07:00N 62°06' E 007°11'0 0.0
2017-Jun-23 06:30N 62°06' E 007°11'0 0.0
2017-Jun-23 06:00N 62°06' E 007°11'0 0.0
2017-Jun-23 05:30N 62°06' E 007°11'0 0.0
2017-Jun-23 05:00N 62°06' E 007°11'0 0.0
2017-Jun-23 04:29N 62°06' E 007°11'2 3.9
2017-Jun-23 04:00N 62°07' E 007°08'4 8.7
2017-Jun-23 03:30N 62°06' E 006°58'510.5
2017-Jun-23 03:00N 62°11' E 007°02'611.9
2017-Jun-23 02:31N 62°17' E 007°01'612.7
2017-Jun-23 02:00N 62°23' E 006°55'611.4
2017-Jun-23 01:30N 62°27' E 006°47'611.5
2017-Jun-23 01:00N 62°26' E 006°34'611.3
2017-Jun-23 00:31N 62°24' E 006°23'611.1
2017-Jun-23 00:00N 62°22' E 006°12'611.7
2017-Jun-22 23:30N 62°18' E 006°02'612.0
2017-Jun-22 23:01N 62°13' E 005°54'611.6
2017-Jun-22 22:30N 62°11' E 005°42'611.1
2017-Jun-22 22:00N 62°12' E 005°30'510.4
2017-Jun-22 21:31N 62°11' E 005°20'510.6
2017-Jun-22 21:00N 62°14' E 005°10'5 9.3
2017-Jun-22 20:30N 62°10' E 005°03'611.4
2017-Jun-22 20:01N 62°05' E 005°07'611.4
2017-Jun-22 19:31N 61°59' E 005°10'5 9.4
2017-Jun-22 19:00N 61°55' E 005°07'612.7
2017-Jun-22 18:31N 61°54' E 005°20'714.0
2017-Jun-22 18:00N 61°54' E 005°36'7 0.6
2017-Jun-22 05:23N 61°51' E 005°49'513.6
2017-Jun-22 05:00N 61°54' E 005°39'713.5
2017-Jun-22 04:30N 61°55' E 005°25'713.4
2017-Jun-22 04:00N 61°54' E 005°12'4 7.5
2017-Jun-22 03:30N 61°57' E 005°09'611.5
2017-Jun-22 03:00N 62°03' E 005°08'714.1
2017-Jun-22 02:30N 62°09' E 005°02'713.6
2017-Jun-22 02:00N 62°16' E 005°06'714.3
2017-Jun-22 01:30N 62°22' E 005°15'815.2
2017-Jun-22 01:00N 62°25' E 005°30'714.9
2017-Jun-22 00:30N 62°27' E 005°45'510.4
2017-Jun-22 00:00N 62°27' E 005°56'611.1
2017-Jun-21 23:30N 62°29' E 005°46'713.1
2017-Jun-21 23:00N 62°36' E 005°41'714.2
2017-Jun-21 22:30N 62°41' E 005°52'714.4
2017-Jun-21 22:00N 62°46' E 006°03'714.5
2017-Jun-21 21:30N 62°51' E 006°15'714.3
2017-Jun-21 21:00N 62°55' E 006°27'714.5
2017-Jun-21 20:31N 63°00' E 006°38'714.4
2017-Jun-21 20:00N 63°05' E 006°51'714.3
2017-Jun-21 19:30N 63°08' E 007°04'713.9
2017-Jun-21 19:01N 63°11' E 007°18'714.0
2017-Jun-21 18:30N 63°15' E 007°31'612.8
2017-Jun-21 18:00N 63°14' E 007°45'510.3
2017-Jun-21 17:30N 63°13' E 007°56'713.7
2017-Jun-21 17:00N 63°17' E 008°10'713.6
2017-Jun-21 16:30N 63°21' E 008°21'713.6
2017-Jun-21 16:00N 63°25' E 008°34'713.3
2017-Jun-21 15:30N 63°27' E 008°48'713.9
2017-Jun-21 15:00N 63°29' E 009°03'1313.6
2017-Jun-21 14:00N 63°36' E 009°29'713.6
2017-Jun-21 13:30N 63°39' E 009°43'612.0
2017-Jun-21 13:00N 63°34' E 009°50'713.2
2017-Jun-21 12:30N 63°29' E 009°58'713.6
2017-Jun-21 12:00N 63°28' E 010°13'5 9.4
2017-Jun-21 11:30N 63°27' E 010°23'0 0.5
2017-Jun-21 10:59N 63°26' E 010°24'0 0.0
2017-Jun-21 10:29N 63°26' E 010°24'0 0.0
2017-Jun-21 09:59N 63°26' E 010°24'0 0.0
2017-Jun-21 09:29N 63°26' E 010°24'0 0.0
2017-Jun-21 08:59N 63°26' E 010°24'0 0.0
2017-Jun-21 08:29N 63°26' E 010°24'0 0.0
2017-Jun-21 07:59N 63°26' E 010°24'0 0.0
2017-Jun-21 07:29N 63°26' E 010°24'0 0.0
2017-Jun-21 06:59N 63°26' E 010°24'0 0.0
2017-Jun-21 06:29N 63°26' E 010°24'0 0.0
2017-Jun-21 05:59N 63°26' E 010°24'0 0.0
2017-Jun-21 05:29N 63°26' E 010°24'0 0.0
2017-Jun-21 04:59N 63°26' E 010°24'1 1.7
2017-Jun-21 04:30N 63°27' E 010°22'4 8.8
2017-Jun-21 04:00N 63°28' E 010°13'510.1
2017-Jun-21 03:30N 63°28' E 010°02'5 9.4
2017-Jun-21 03:01N 63°31' E 009°53'611.3
2017-Jun-21 02:30N 63°36' E 009°48'4 8.0
2017-Jun-21 01:58N 63°39' E 009°40'511.0
2017-Jun-21 01:30N 63°37' E 009°30'611.6
2017-Jun-21 01:01N 63°38' E 009°17'713.6
2017-Jun-21 00:30N 63°44' E 009°13'4512.1
2017-Jun-20 20:46N 64°26' E 009°56'3211.3
2017-Jun-20 17:59N 64°44' E 010°56'714.0
2017-Jun-20 17:30N 64°48' E 011°07'4 8.7
2017-Jun-20 17:00N 64°52' E 011°14'0 0.0
2017-Jun-20 16:30N 64°52' E 011°14'0 0.0
2017-Jun-20 16:00N 64°52' E 011°14'0 0.0
2017-Jun-20 15:30N 64°52' E 011°14'0 0.0
2017-Jun-20 15:00N 64°52' E 011°14'0 0.0
2017-Jun-20 14:00N 64°52' E 011°14'0 0.0
2017-Jun-20 13:30N 64°52' E 011°14'0 0.0
2017-Jun-20 13:00N 64°52' E 011°14'0 0.0
2017-Jun-20 12:30N 64°52' E 011°14'0 0.0
2017-Jun-20 12:00N 64°52' E 011°14'0 0.0
2017-Jun-20 11:30N 64°52' E 011°14'0 0.0
2017-Jun-20 11:00N 64°52' E 011°14'0 0.0
2017-Jun-20 10:30N 64°52' E 011°14'0 0.0
2017-Jun-20 10:00N 64°52' E 011°14'0 0.0
2017-Jun-20 09:30N 64°52' E 011°14'0 0.0
2017-Jun-20 09:00N 64°52' E 011°14'0 0.0
2017-Jun-20 08:30N 64°52' E 011°14'0 0.0
2017-Jun-20 08:00N 64°52' E 011°14'0 0.2
2017-Jun-20 07:30N 64°52' E 011°14'1 2.9
2017-Jun-20 07:00N 64°53' E 011°17'713.2
2017-Jun-20 06:30N 64°58' E 011°24'713.1
2017-Jun-20 06:01N 65°02' E 011°38'713.0
2017-Jun-20 05:31N 65°06' E 011°48'713.9
2017-Jun-20 05:00N 65°13' E 011°54'713.6
2017-Jun-20 04:30N 65°19' E 012°01'611.4
2017-Jun-20 03:59N 65°25' E 011°57'612.3
2017-Jun-20 03:30N 65°31' E 012°01'1013.4
2017-Jun-20 02:47N 65°39' E 012°13'413.9
2017-Jun-20 02:30N 65°43' E 012°16'714.2
2017-Jun-20 01:59N 65°50' E 012°21'713.8
2017-Jun-20 01:30N 65°56' E 012°24'713.4
2017-Jun-20 01:00N 66°02' E 012°34'613.2
2017-Jun-20 00:30N 66°07' E 012°44'713.1
2017-Jun-20 00:00N 66°12' E 012°52'713.9
2017-Jun-19 23:30N 66°19' E 012°56'713.2
2017-Jun-19 23:00N 66°26' E 012°59'612.9
2017-Jun-19 22:30N 66°32' E 012°58'611.7
2017-Jun-19 22:00N 66°37' E 013°05'713.7
2017-Jun-19 21:29N 66°44' E 013°11'713.3
2017-Jun-19 20:57N 66°51' E 013°17'613.1
2017-Jun-19 20:29N 66°55' E 013°29'510.4
2017-Jun-19 20:00N 66°58' E 013°38'713.9
2017-Jun-19 19:30N 67°03' E 013°51'713.4
2017-Jun-19 19:00N 67°08' E 014°01'713.3
2017-Jun-19 18:30N 67°14' E 014°08'713.3
2017-Jun-19 18:00N 67°20' E 014°19'713.1
2017-Jun-19 17:30N 67°25' E 014°27'814.3
2017-Jun-19 16:57N 67°32' E 014°18'614.0
2017-Jun-19 16:30N 67°38' E 014°11'33 8.8
2017-Jun-19 12:48N 68°08' E 013°34'0 0.0
2017-Jun-19 12:30N 68°08' E 013°34'0 0.0
2017-Jun-19 12:00N 68°08' E 013°34'0 0.0
2017-Jun-19 11:30N 68°08' E 013°34'0 0.0
2017-Jun-19 11:00N 68°08' E 013°34'0 0.0
2017-Jun-19 10:30N 68°08' E 013°34'0 0.0
2017-Jun-19 10:00N 68°08' E 013°34'0 0.0
2017-Jun-19 09:30N 68°08' E 013°34'0 0.0
2017-Jun-19 09:00N 68°08' E 013°34'0 0.0
2017-Jun-19 08:30N 68°08' E 013°34'0 0.0
2017-Jun-19 08:00N 68°08' E 013°34'0 0.0
2017-Jun-19 07:27N 68°08' E 013°34'0 0.0
2017-Jun-19 07:00N 68°08' E 013°34'0 0.0
2017-Jun-19 06:30N 68°08' E 013°34'1 2.8
2017-Jun-19 06:00N 68°06' E 013°36'510.9
2017-Jun-19 05:30N 68°01' E 013°34'714.9
2017-Jun-19 05:00N 67°57' E 013°18'2 4.8
2017-Jun-19 04:30N 67°56' E 013°12'5 9.0
2017-Jun-19 04:00N 67°57' E 013°23'4 8.8
2017-Jun-19 03:30N 67°59' E 013°34'4 7.6
2017-Jun-19 03:00N 68°00' E 013°43'3 5.7
2017-Jun-19 02:30N 68°01' E 013°51'3 5.4
2017-Jun-19 02:00N 68°01' E 013°58'3 4.9
2017-Jun-19 01:29N 68°01' E 014°04'3 5.4
2017-Jun-19 01:00N 68°03' E 014°10'3 5.6
2017-Jun-19 00:30N 68°02' E 014°16'3 5.5
2017-Jun-19 00:00N 68°00' E 014°22'3 5.3
2017-Jun-18 23:30N 68°03' E 014°24'3 5.4
2017-Jun-18 23:00N 68°05' E 014°29'3 6.1
2017-Jun-18 22:30N 68°06' E 014°37'3 6.1
2017-Jun-18 22:00N 68°07' E 014°45'3 6.1
2017-Jun-18 21:30N 68°08' E 014°52'3 6.0
2017-Jun-18 21:00N 68°11' E 014°55'4 6.9
2017-Jun-18 20:29N 68°14' E 014°55'4 7.2
2017-Jun-18 20:00N 68°18' E 014°59'4 7.3
2017-Jun-18 19:30N 68°21' E 014°59'1 2.5
2017-Jun-18 19:00N 68°22' E 014°56'1 2.7
2017-Jun-18 18:30N 68°21' E 014°59'4 8.6
2017-Jun-18 18:00N 68°17' E 014°58'5 9.8
2017-Jun-18 17:30N 68°12' E 014°52'510.5
2017-Jun-18 16:59N 68°08' E 014°42'3 7.1
2017-Jun-18 16:30N 68°10' E 014°34'3 6.6
2017-Jun-18 15:59N 68°14' E 014°34'0 0.0
2017-Jun-18 15:29N 68°14' E 014°34'0 0.0
2017-Jun-18 14:59N 68°14' E 014°34'0 0.0
2017-Jun-18 14:29N 68°14' E 014°34'0 0.0
2017-Jun-18 13:59N 68°14' E 014°34'0 0.0
2017-Jun-18 13:29N 68°14' E 014°34'0 0.0
2017-Jun-18 12:59N 68°14' E 014°34'0 0.0
2017-Jun-18 12:29N 68°14' E 014°34'0 0.0
2017-Jun-18 11:59N 68°14' E 014°34'0 0.0
2017-Jun-18 11:29N 68°14' E 014°34'0 0.0
2017-Jun-18 10:59N 68°14' E 014°34'0 0.0
2017-Jun-18 10:29N 68°14' E 014°34'0 0.0
2017-Jun-18 09:59N 68°14' E 014°34'0 0.0
2017-Jun-18 09:29N 68°14' E 014°34'0 0.0
2017-Jun-18 08:59N 68°14' E 014°34'0 0.0
2017-Jun-18 08:29N 68°14' E 014°34'0 0.0
2017-Jun-18 07:59N 68°14' E 014°34'0 0.0
2017-Jun-18 07:29N 68°14' E 014°34'0 0.0
2017-Jun-18 06:59N 68°14' E 014°34'0 0.0
2017-Jun-18 06:29N 68°14' E 014°34'0 0.0
2017-Jun-18 05:59N 68°14' E 014°34'0 0.0
2017-Jun-18 05:29N 68°14' E 014°34'0 0.0
2017-Jun-18 04:59N 68°14' E 014°34'0 0.0
2017-Jun-18 04:31N 68°14' E 014°34'3 5.1
2017-Jun-18 04:00N 68°11' E 014°33'5 9.2
2017-Jun-18 03:30N 68°07' E 014°37'5 9.5
2017-Jun-18 03:00N 68°05' E 014°49'5 9.8
2017-Jun-18 02:30N 68°07' E 015°01'510.3
2017-Jun-18 02:00N 68°10' E 015°13'510.3
2017-Jun-18 01:30N 68°12' E 015°26'510.2
2017-Jun-18 01:00N 68°13' E 015°39'510.2
2017-Jun-18 00:30N 68°17' E 015°49'510.6
2017-Jun-18 00:00N 68°21' E 015°59'510.4
2017-Jun-17 23:30N 68°23' E 016°12'510.4
2017-Jun-17 23:00N 68°25' E 016°25'510.3
2017-Jun-17 22:30N 68°26' E 016°39'510.4
2017-Jun-17 22:00N 68°26' E 016°53'510.5
2017-Jun-17 21:31N 68°26' E 017°07'5 9.9
2017-Jun-17 21:00N 68°26' E 017°21'2 4.1
2017-Jun-17 20:30N 68°25' E 017°26'0 0.0
2017-Jun-17 20:00N 68°25' E 017°26'0 0.0
2017-Jun-17 19:30N 68°25' E 017°26'0 0.0
2017-Jun-17 19:00N 68°25' E 017°26'0 0.0
2017-Jun-17 18:30N 68°25' E 017°26'0 0.0
2017-Jun-17 18:00N 68°25' E 017°26'0 0.0
2017-Jun-17 17:30N 68°25' E 017°26'0 0.0
2017-Jun-17 17:00N 68°25' E 017°26'0 0.0
2017-Jun-17 16:30N 68°25' E 017°26'0 0.0
2017-Jun-17 16:00N 68°25' E 017°26'0 0.0
2017-Jun-17 15:30N 68°25' E 017°26'0 0.0
2017-Jun-17 15:00N 68°25' E 017°26'0 0.0
2017-Jun-17 14:00N 68°25' E 017°26'0 0.0
2017-Jun-17 13:30N 68°25' E 017°26'0 0.0
2017-Jun-17 13:00N 68°25' E 017°26'0 0.0
2017-Jun-17 12:30N 68°25' E 017°26'0 0.0
2017-Jun-17 12:00N 68°25' E 017°26'0 0.0
2017-Jun-17 11:30N 68°25' E 017°26'0 0.0
2017-Jun-17 11:00N 68°25' E 017°26'0 0.0
2017-Jun-17 10:30N 68°25' E 017°26'0 0.0
2017-Jun-17 10:00N 68°25' E 017°26'0 0.0
2017-Jun-17 09:30N 68°25' E 017°26'0 0.0
2017-Jun-17 09:00N 68°25' E 017°26'0 0.0
2017-Jun-17 08:30N 68°25' E 017°26'0 0.0
2017-Jun-17 08:00N 68°25' E 017°26'1 1.5
2017-Jun-17 07:30N 68°25' E 017°24'4 8.9
2017-Jun-17 07:00N 68°26' E 017°12'510.7
2017-Jun-17 06:30N 68°26' E 016°58'713.4
2017-Jun-17 06:00N 68°26' E 016°39'714.3
2017-Jun-17 05:30N 68°24' E 016°20'713.3
2017-Jun-17 05:00N 68°22' E 016°03'510.6
2017-Jun-17 04:30N 68°18' E 015°54'714.1
2017-Jun-17 04:00N 68°13' E 015°40'713.4
2017-Jun-17 03:30N 68°11' E 015°23'713.9
2017-Jun-17 03:00N 68°07' E 015°09'714.6
2017-Jun-17 02:30N 68°03' E 014°51'612.8
2017-Jun-17 02:00N 68°00' E 014°37'510.7
2017-Jun-17 01:30N 67°57' E 014°26'611.2
2017-Jun-17 00:59N 67°52' E 014°16'611.1
2017-Jun-17 00:29N 67°48' E 014°07'511.0
2017-Jun-16 23:59N 67°44' E 013°58'510.8
2017-Jun-16 23:30N 67°40' E 013°49'610.8
2017-Jun-16 23:00N 67°35' E 013°40'611.1
2017-Jun-16 22:30N 67°31' E 013°31'611.2
2017-Jun-16 22:00N 67°27' E 013°22'611.3
2017-Jun-16 21:30N 67°22' E 013°13'611.2
2017-Jun-16 20:59N 67°18' E 013°03'3711.3
2017-Jun-16 17:41N 66°49' E 012°04'411.8
2017-Jun-16 17:22N 66°46' E 011°57'411.8
2017-Jun-16 17:00N 66°43' E 011°51'612.0
2017-Jun-16 16:30N 66°38' E 011°42'612.2
2017-Jun-16 16:00N 66°33' E 011°34'612.1
2017-Jun-16 15:29N 66°27' E 011°26'17014.3
2017-Jun-16 03:35N 63°58' E 008°09'114.7
2017-Jun-16 03:30N 63°57' E 008°08'715.0
2017-Jun-16 03:00N 63°51' E 008°00'815.2
2017-Jun-16 02:30N 63°44' E 007°52'815.2
2017-Jun-16 02:01N 63°37' E 007°43'815.2
2017-Jun-16 01:31N 63°31' E 007°35'714.8
2017-Jun-16 01:01N 63°23' E 007°35'714.9
2017-Jun-16 00:31N 63°16' E 007°38'510.0
2017-Jun-16 00:01N 63°12' E 007°45'611.2
2017-Jun-15 23:30N 63°08' E 007°37'611.9
2017-Jun-15 23:01N 63°05' E 007°26'612.2
2017-Jun-15 22:31N 63°03' E 007°13'713.6
2017-Jun-15 22:00N 63°01' E 006°59'713.5
2017-Jun-15 21:30N 62°55' E 006°50'713.7
2017-Jun-15 21:00N 62°49' E 006°58'714.3
2017-Jun-15 20:30N 62°42' E 007°01'815.1
2017-Jun-15 20:00N 62°38' E 007°15'1212.8
2017-Jun-15 19:04N 62°34' E 007°39'1 9.5
2017-Jun-15 19:00N 62°34' E 007°40'1 0.1
2017-Jun-15 10:04N 62°34' E 007°42'0 1.3
2017-Jun-15 10:00N 62°34' E 007°41'8 7.5
2017-Jun-15 08:59N 62°35' E 007°25'613.3
2017-Jun-15 08:30N 62°38' E 007°13'713.9
2017-Jun-15 07:59N 62°40' E 006°58'714.4
2017-Jun-15 07:30N 62°39' E 006°43'713.9
2017-Jun-15 07:00N 62°38' E 006°28'612.0
2017-Jun-15 06:29N 62°36' E 006°15'611.8
2017-Jun-15 06:00N 62°31' E 006°09'611.7
2017-Jun-15 05:30N 62°27' E 005°59'510.5
2017-Jun-15 05:00N 62°29' E 005°48'713.7
2017-Jun-15 04:30N 62°29' E 005°33'714.3
2017-Jun-15 04:00N 62°27' E 005°18'713.8
2017-Jun-15 03:30N 62°23' E 005°06'714.8
2017-Jun-15 03:00N 62°17' E 004°56'714.7
2017-Jun-15 02:29N 62°11' E 004°49'714.5
2017-Jun-15 02:00N 62°04' E 004°42'713.6
2017-Jun-15 01:30N 61°58' E 004°36'714.1
2017-Jun-15 01:00N 61°51' E 004°33'911.8
2017-Jun-15 00:14N 61°44' E 004°23'313.7
2017-Jun-15 00:00N 61°41' E 004°25'713.6
2017-Jun-14 23:29N 61°34' E 004°24'612.2
2017-Jun-14 23:00N 61°28' E 004°20'713.9
2017-Jun-14 22:30N 61°21' E 004°22'815.2
2017-Jun-14 22:00N 61°14' E 004°22'816.1
2017-Jun-14 21:30N 61°06' E 004°22'815.9
2017-Jun-14 21:00N 60°58' E 004°28'714.3
2017-Jun-14 20:30N 60°52' E 004°35'5 9.2
2017-Jun-14 19:59N 60°55' E 004°41'714.0
2017-Jun-14 19:31N 61°01' E 004°50'714.5
2017-Jun-14 19:00N 61°04' E 005°03'713.6
2017-Jun-14 18:30N 61°05' E 005°17'714.2
2017-Jun-14 18:00N 61°05' E 005°32'714.9
2017-Jun-14 17:30N 61°08' E 005°46'715.1
2017-Jun-14 17:01N 61°08' E 006°02'815.1
2017-Jun-14 16:30N 61°07' E 006°17'713.7
2017-Jun-14 16:00N 61°06' E 006°31'2 3.7
2017-Jun-14 15:30N 61°06' E 006°35'0 0.1
2017-Jun-14 15:00N 61°06' E 006°35'4 3.9
2017-Jun-14 13:59N 61°09' E 006°36'4 8.7
2017-Jun-14 13:31N 61°10' E 006°45'611.2
2017-Jun-14 13:00N 61°07' E 006°55'612.0
2017-Jun-14 12:30N 61°02' E 007°02'611.1
2017-Jun-14 12:00N 60°57' E 007°08'4 8.9
2017-Jun-14 11:30N 60°53' E 007°08'0 1.0
2017-Jun-14 10:59N 60°52' E 007°08'0 0.1
2017-Jun-14 10:29N 60°52' E 007°08'0 0.0
2017-Jun-14 09:59N 60°52' E 007°08'0 0.0
2017-Jun-14 09:29N 60°52' E 007°08'0 0.0
2017-Jun-14 08:59N 60°52' E 007°08'0 0.0
2017-Jun-14 08:23N 60°52' E 007°08'0 0.0
2017-Jun-14 07:59N 60°52' E 007°08'0 0.0
2017-Jun-14 07:29N 60°52' E 007°08'0 0.0
2017-Jun-14 06:59N 60°52' E 007°08'0 0.0
2017-Jun-14 06:29N 60°52' E 007°08'0 0.1
2017-Jun-14 05:59N 60°52' E 007°08'0 0.0
2017-Jun-14 05:29N 60°52' E 007°08'0 0.4
2017-Jun-14 05:00N 60°52' E 007°08'2 3.6
2017-Jun-14 04:30N 60°54' E 007°09'5 9.6
2017-Jun-14 04:00N 60°58' E 007°05'510.7
2017-Jun-14 03:30N 61°03' E 007°01'611.1
2017-Jun-14 03:00N 61°08' E 006°54'611.3
2017-Jun-14 02:30N 61°10' E 006°43'5 9.9
2017-Jun-14 02:00N 61°08' E 006°34'611.6
2017-Jun-14 01:30N 61°06' E 006°23'612.7
2017-Jun-14 01:00N 61°08' E 006°10'612.7
2017-Jun-14 00:30N 61°08' E 005°56'612.4
2017-Jun-13 23:59N 61°07' E 005°44'612.1
2017-Jun-13 23:30N 61°05' E 005°32'611.6
2017-Jun-13 23:00N 61°04' E 005°21'611.4
2017-Jun-13 22:29N 61°06' E 005°09'612.9
2017-Jun-13 22:00N 61°03' E 004°57'714.4
2017-Jun-13 21:30N 60°59' E 004°45'713.4
2017-Jun-13 21:00N 60°52' E 004°41'714.2
2017-Jun-13 20:30N 60°46' E 004°47'714.2
2017-Jun-13 20:00N 60°39' E 004°52'  
Track history (hours):
 
Tides and Currents Weather Stations Pressure Air Temp Water Temp Dewpoint Dewpoint Depression Visibility Wind Speed Wind Dir Waves Ship Positions

Berlin

Last reported at 2017-Jun-23 19:32 UTC. Time now 2017-Jun-23 20:36 UTC.
Position N 61°55' E 004°25'.

Length 140 m; draft 5.1 m.

Type: Ship. MMSI: 248277000.

Date/timePositionNaut miles runAvg speedWind from/ knotsBaromVisibWave heightAir tempDewpointWater temp
2017-Jun-23 19:32N 61°55' E 004°25'013.5
2017-Jun-23 19:30N 61°55' E 004°26'713.5
2017-Jun-23 19:00N 62°01' E 004°34'713.5
2017-Jun-23 18:30N 62°07' E 004°43'713.7
2017-Jun-23 18:00N 62°12' E 004°51'713.3
2017-Jun-23 17:30N 62°18' E 004°59'713.5
2017-Jun-23 17:00N 62°22' E 005°10'714.4
2017-Jun-23 16:30N 62°26' E 005°23'714.7
2017-Jun-23 16:00N 62°30' E 005°37'714.6
2017-Jun-23 15:30N 62°28' E 005°52'611.5
2017-Jun-23 15:01N 62°25' E 006°03'1414.2
2017-Jun-23 14:00N 62°26' E 006°33'714.7
2017-Jun-23 13:30N 62°27' E 006°49'713.6
2017-Jun-23 13:00N 62°21' E 006°56'714.6
2017-Jun-23 12:30N 62°14' E 007°01'713.8
2017-Jun-23 12:00N 62°07' E 006°57'510.0
2017-Jun-23 11:30N 62°07' E 007°08'2 3.6
2017-Jun-23 11:00N 62°06' E 007°11'0 0.0
2017-Jun-23 10:30N 62°06' E 007°11'0 0.1
2017-Jun-23 10:00N 62°06' E 007°11'0 0.0
2017-Jun-23 09:30N 62°06' E 007°11'0 0.0
2017-Jun-23 09:00N 62°06' E 007°11'0 0.0
2017-Jun-23 08:30N 62°06' E 007°11'0 0.0
2017-Jun-23 08:00N 62°06' E 007°11'0 0.0
2017-Jun-23 07:30N 62°06' E 007°11'0 0.0
2017-Jun-23 07:00N 62°06' E 007°11'0 0.0
2017-Jun-23 06:30N 62°06' E 007°11'0 0.0
2017-Jun-23 06:00N 62°06' E 007°11'0 0.0
2017-Jun-23 05:30N 62°06' E 007°11'0 0.0
2017-Jun-23 05:00N 62°06' E 007°11'0 0.0
2017-Jun-23 04:29N 62°06' E 007°11'2 3.9
2017-Jun-23 04:00N 62°07' E 007°08'4 8.7
2017-Jun-23 03:30N 62°06' E 006°58'510.5
2017-Jun-23 03:00N 62°11' E 007°02'611.9
2017-Jun-23 02:31N 62°17' E 007°01'612.7
2017-Jun-23 02:00N 62°23' E 006°55'611.4
2017-Jun-23 01:30N 62°27' E 006°47'611.5
2017-Jun-23 01:00N 62°26' E 006°34'611.3
2017-Jun-23 00:31N 62°24' E 006°23'611.1
2017-Jun-23 00:00N 62°22' E 006°12'611.7
2017-Jun-22 23:30N 62°18' E 006°02'612.0
2017-Jun-22 23:01N 62°13' E 005°54'611.6
2017-Jun-22 22:30N 62°11' E 005°42'611.1
2017-Jun-22 22:00N 62°12' E 005°30'510.4
2017-Jun-22 21:31N 62°11' E 005°20'510.6
2017-Jun-22 21:00N 62°14' E 005°10'5 9.3
2017-Jun-22 20:30N 62°10' E 005°03'611.4
2017-Jun-22 20:01N 62°05' E 005°07'611.4
2017-Jun-22 19:31N 61°59' E 005°10'5 9.4
2017-Jun-22 19:00N 61°55' E 005°07'612.7
2017-Jun-22 18:31N 61°54' E 005°20'714.0
2017-Jun-22 18:00N 61°54' E 005°36'7 0.6
2017-Jun-22 05:23N 61°51' E 005°49'513.6
2017-Jun-22 05:00N 61°54' E 005°39'713.5
2017-Jun-22 04:30N 61°55' E 005°25'713.4
2017-Jun-22 04:00N 61°54' E 005°12'4 7.5
2017-Jun-22 03:30N 61°57' E 005°09'611.5
2017-Jun-22 03:00N 62°03' E 005°08'714.1
2017-Jun-22 02:30N 62°09' E 005°02'713.6
2017-Jun-22 02:00N 62°16' E 005°06'714.3
2017-Jun-22 01:30N 62°22' E 005°15'815.2
2017-Jun-22 01:00N 62°25' E 005°30'714.9
2017-Jun-22 00:30N 62°27' E 005°45'510.4
2017-Jun-22 00:00N 62°27' E 005°56'611.1
2017-Jun-21 23:30N 62°29' E 005°46'713.1
2017-Jun-21 23:00N 62°36' E 005°41'714.2
2017-Jun-21 22:30N 62°41' E 005°52'714.4
2017-Jun-21 22:00N 62°46' E 006°03'714.5
2017-Jun-21 21:30N 62°51' E 006°15'714.3
2017-Jun-21 21:00N 62°55' E 006°27'714.5
2017-Jun-21 20:31N 63°00' E 006°38'714.4
2017-Jun-21 20:00N 63°05' E 006°51'714.3
2017-Jun-21 19:30N 63°08' E 007°04'713.9
2017-Jun-21 19:01N 63°11' E 007°18'714.0
2017-Jun-21 18:30N 63°15' E 007°31'612.8
2017-Jun-21 18:00N 63°14' E 007°45'510.3
2017-Jun-21 17:30N 63°13' E 007°56'713.7
2017-Jun-21 17:00N 63°17' E 008°10'713.6
2017-Jun-21 16:30N 63°21' E 008°21'713.6
2017-Jun-21 16:00N 63°25' E 008°34'713.3
2017-Jun-21 15:30N 63°27' E 008°48'713.9
2017-Jun-21 15:00N 63°29' E 009°03'1313.6
2017-Jun-21 14:00N 63°36' E 009°29'713.6
2017-Jun-21 13:30N 63°39' E 009°43'612.0
2017-Jun-21 13:00N 63°34' E 009°50'713.2
2017-Jun-21 12:30N 63°29' E 009°58'713.6
2017-Jun-21 12:00N 63°28' E 010°13'5 9.4
2017-Jun-21 11:30N 63°27' E 010°23'0 0.5
2017-Jun-21 10:59N 63°26' E 010°24'0 0.0
2017-Jun-21 10:29N 63°26' E 010°24'0 0.0
2017-Jun-21 09:59N 63°26' E 010°24'0 0.0
2017-Jun-21 09:29N 63°26' E 010°24'0 0.0
2017-Jun-21 08:59N 63°26' E 010°24'0 0.0
2017-Jun-21 08:29N 63°26' E 010°24'0 0.0
2017-Jun-21 07:59N 63°26' E 010°24'0 0.0
2017-Jun-21 07:29N 63°26' E 010°24'0 0.0
2017-Jun-21 06:59N 63°26' E 010°24'0 0.0
2017-Jun-21 06:29N 63°26' E 010°24'0 0.0
2017-Jun-21 05:59N 63°26' E 010°24'0 0.0
2017-Jun-21 05:29N 63°26' E 010°24'0 0.0
2017-Jun-21 04:59N 63°26' E 010°24'1 1.7
2017-Jun-21 04:30N 63°27' E 010°22'4 8.8
2017-Jun-21 04:00N 63°28' E 010°13'510.1
2017-Jun-21 03:30N 63°28' E 010°02'5 9.4
2017-Jun-21 03:01N 63°31' E 009°53'611.3
2017-Jun-21 02:30N 63°36' E 009°48'4 8.0
2017-Jun-21 01:58N 63°39' E 009°40'511.0
2017-Jun-21 01:30N 63°37' E 009°30'611.6
2017-Jun-21 01:01N 63°38' E 009°17'713.6
2017-Jun-21 00:30N 63°44' E 009°13'4512.1
2017-Jun-20 20:46N 64°26' E 009°56'3211.3
2017-Jun-20 17:59N 64°44' E 010°56'714.0
2017-Jun-20 17:30N 64°48' E 011°07'4 8.7
2017-Jun-20 17:00N 64°52' E 011°14'0 0.0
2017-Jun-20 16:30N 64°52' E 011°14'0 0.0
2017-Jun-20 16:00N 64°52' E 011°14'0 0.0
2017-Jun-20 15:30N 64°52' E 011°14'0 0.0
2017-Jun-20 15:00N 64°52' E 011°14'0 0.0
2017-Jun-20 14:00N 64°52' E 011°14'0 0.0
2017-Jun-20 13:30N 64°52' E 011°14'0 0.0
2017-Jun-20 13:00N 64°52' E 011°14'0 0.0
2017-Jun-20 12:30N 64°52' E 011°14'0 0.0
2017-Jun-20 12:00N 64°52' E 011°14'0 0.0
2017-Jun-20 11:30N 64°52' E 011°14'0 0.0
2017-Jun-20 11:00N 64°52' E 011°14'0 0.0
2017-Jun-20 10:30N 64°52' E 011°14'0 0.0
2017-Jun-20 10:00N 64°52' E 011°14'0 0.0
2017-Jun-20 09:30N 64°52' E 011°14'0 0.0
2017-Jun-20 09:00N 64°52' E 011°14'0 0.0
2017-Jun-20 08:30N 64°52' E 011°14'0 0.0
2017-Jun-20 08:00N 64°52' E 011°14'0 0.2
2017-Jun-20 07:30N 64°52' E 011°14'1 2.9
2017-Jun-20 07:00N 64°53' E 011°17'713.2
2017-Jun-20 06:30N 64°58' E 011°24'713.1
2017-Jun-20 06:01N 65°02' E 011°38'713.0
2017-Jun-20 05:31N 65°06' E 011°48'713.9
2017-Jun-20 05:00N 65°13' E 011°54'713.6
2017-Jun-20 04:30N 65°19' E 012°01'611.4
2017-Jun-20 03:59N 65°25' E 011°57'612.3
2017-Jun-20 03:30N 65°31' E 012°01'1013.4
2017-Jun-20 02:47N 65°39' E 012°13'413.9
2017-Jun-20 02:30N 65°43' E 012°16'714.2
2017-Jun-20 01:59N 65°50' E 012°21'713.8
2017-Jun-20 01:30N 65°56' E 012°24'713.4
2017-Jun-20 01:00N 66°02' E 012°34'613.2
2017-Jun-20 00:30N 66°07' E 012°44'713.1
2017-Jun-20 00:00N 66°12' E 012°52'713.9
2017-Jun-19 23:30N 66°19' E 012°56'713.2
2017-Jun-19 23:00N 66°26' E 012°59'612.9
2017-Jun-19 22:30N 66°32' E 012°58'611.7
2017-Jun-19 22:00N 66°37' E 013°05'713.7
2017-Jun-19 21:29N 66°44' E 013°11'713.3
2017-Jun-19 20:57N 66°51' E 013°17'613.1
2017-Jun-19 20:29N 66°55' E 013°29'510.4
2017-Jun-19 20:00N 66°58' E 013°38'713.9
2017-Jun-19 19:30N 67°03' E 013°51'713.4
2017-Jun-19 19:00N 67°08' E 014°01'713.3
2017-Jun-19 18:30N 67°14' E 014°08'713.3
2017-Jun-19 18:00N 67°20' E 014°19'713.1
2017-Jun-19 17:30N 67°25' E 014°27'814.3
2017-Jun-19 16:57N 67°32' E 014°18'614.0
2017-Jun-19 16:30N 67°38' E 014°11'33 8.8
2017-Jun-19 12:48N 68°08' E 013°34'0 0.0
2017-Jun-19 12:30N 68°08' E 013°34'0 0.0
2017-Jun-19 12:00N 68°08' E 013°34'0 0.0
2017-Jun-19 11:30N 68°08' E 013°34'0 0.0
2017-Jun-19 11:00N 68°08' E 013°34'0 0.0
2017-Jun-19 10:30N 68°08' E 013°34'0 0.0
2017-Jun-19 10:00N 68°08' E 013°34'0 0.0
2017-Jun-19 09:30N 68°08' E 013°34'0 0.0
2017-Jun-19 09:00N 68°08' E 013°34'0 0.0
2017-Jun-19 08:30N 68°08' E 013°34'0 0.0
2017-Jun-19 08:00N 68°08' E 013°34'0 0.0
2017-Jun-19 07:27N 68°08' E 013°34'0 0.0
2017-Jun-19 07:00N 68°08' E 013°34'0 0.0
2017-Jun-19 06:30N 68°08' E 013°34'1 2.8
2017-Jun-19 06:00N 68°06' E 013°36'510.9
2017-Jun-19 05:30N 68°01' E 013°34'714.9
2017-Jun-19 05:00N 67°57' E 013°18'2 4.8
2017-Jun-19 04:30N 67°56' E 013°12'5 9.0
2017-Jun-19 04:00N 67°57' E 013°23'4 8.8
2017-Jun-19 03:30N 67°59' E 013°34'4 7.6
2017-Jun-19 03:00N 68°00' E 013°43'3 5.7
2017-Jun-19 02:30N 68°01' E 013°51'3 5.4
2017-Jun-19 02:00N 68°01' E 013°58'3 4.9
2017-Jun-19 01:29N 68°01' E 014°04'3 5.4
2017-Jun-19 01:00N 68°03' E 014°10'3 5.6
2017-Jun-19 00:30N 68°02' E 014°16'3 5.5
2017-Jun-19 00:00N 68°00' E 014°22'3 5.3
2017-Jun-18 23:30N 68°03' E 014°24'3 5.4
2017-Jun-18 23:00N 68°05' E 014°29'3 6.1
2017-Jun-18 22:30N 68°06' E 014°37'3 6.1
2017-Jun-18 22:00N 68°07' E 014°45'3 6.1
2017-Jun-18 21:30N 68°08' E 014°52'3 6.0
2017-Jun-18 21:00N 68°11' E 014°55'4 6.9
2017-Jun-18 20:29N 68°14' E 014°55'4 7.2
2017-Jun-18 20:00N 68°18' E 014°59'4 7.3
2017-Jun-18 19:30N 68°21' E 014°59'1 2.5
2017-Jun-18 19:00N 68°22' E 014°56'1 2.7
2017-Jun-18 18:30N 68°21' E 014°59'4 8.6
2017-Jun-18 18:00N 68°17' E 014°58'5 9.8
2017-Jun-18 17:30N 68°12' E 014°52'510.5
2017-Jun-18 16:59N 68°08' E 014°42'3 7.1
2017-Jun-18 16:30N 68°10' E 014°34'3 6.6
2017-Jun-18 15:59N 68°14' E 014°34'0 0.0
2017-Jun-18 15:29N 68°14' E 014°34'0 0.0
2017-Jun-18 14:59N 68°14' E 014°34'0 0.0
2017-Jun-18 14:29N 68°14' E 014°34'0 0.0
2017-Jun-18 13:59N 68°14' E 014°34'0 0.0
2017-Jun-18 13:29N 68°14' E 014°34'0 0.0
2017-Jun-18 12:59N 68°14' E 014°34'0 0.0
2017-Jun-18 12:29N 68°14' E 014°34'0 0.0
2017-Jun-18 11:59N 68°14' E 014°34'0 0.0
2017-Jun-18 11:29N 68°14' E 014°34'0 0.0
2017-Jun-18 10:59N 68°14' E 014°34'0 0.0
2017-Jun-18 10:29N 68°14' E 014°34'0 0.0
2017-Jun-18 09:59N 68°14' E 014°34'0 0.0
2017-Jun-18 09:29N 68°14' E 014°34'0 0.0
2017-Jun-18 08:59N 68°14' E 014°34'0 0.0
2017-Jun-18 08:29N 68°14' E 014°34'0 0.0
2017-Jun-18 07:59N 68°14' E 014°34'0 0.0
2017-Jun-18 07:29N 68°14' E 014°34'0 0.0
2017-Jun-18 06:59N 68°14' E 014°34'0 0.0
2017-Jun-18 06:29N 68°14' E 014°34'0 0.0
2017-Jun-18 05:59N 68°14' E 014°34'0 0.0
2017-Jun-18 05:29N 68°14' E 014°34'0 0.0
2017-Jun-18 04:59N 68°14' E 014°34'0 0.0
2017-Jun-18 04:31N 68°14' E 014°34'3 5.1
2017-Jun-18 04:00N 68°11' E 014°33'5 9.2
2017-Jun-18 03:30N 68°07' E 014°37'5 9.5
2017-Jun-18 03:00N 68°05' E 014°49'5 9.8
2017-Jun-18 02:30N 68°07' E 015°01'510.3
2017-Jun-18 02:00N 68°10' E 015°13'510.3
2017-Jun-18 01:30N 68°12' E 015°26'510.2
2017-Jun-18 01:00N 68°13' E 015°39'510.2
2017-Jun-18 00:30N 68°17' E 015°49'510.6
2017-Jun-18 00:00N 68°21' E 015°59'510.4
2017-Jun-17 23:30N 68°23' E 016°12'510.4
2017-Jun-17 23:00N 68°25' E 016°25'510.3
2017-Jun-17 22:30N 68°26' E 016°39'510.4
2017-Jun-17 22:00N 68°26' E 016°53'510.5
2017-Jun-17 21:31N 68°26' E 017°07'5 9.9
2017-Jun-17 21:00N 68°26' E 017°21'2 4.1
2017-Jun-17 20:30N 68°25' E 017°26'0 0.0
2017-Jun-17 20:00N 68°25' E 017°26'0 0.0
2017-Jun-17 19:30N 68°25' E 017°26'0 0.0
2017-Jun-17 19:00N 68°25' E 017°26'0 0.0
2017-Jun-17 18:30N 68°25' E 017°26'0 0.0
2017-Jun-17 18:00N 68°25' E 017°26'0 0.0
2017-Jun-17 17:30N 68°25' E 017°26'0 0.0
2017-Jun-17 17:00N 68°25' E 017°26'0 0.0
2017-Jun-17 16:30N 68°25' E 017°26'0 0.0
2017-Jun-17 16:00N 68°25' E 017°26'0 0.0
2017-Jun-17 15:30N 68°25' E 017°26'0 0.0
2017-Jun-17 15:00N 68°25' E 017°26'0 0.0
2017-Jun-17 14:00N 68°25' E 017°26'0 0.0
2017-Jun-17 13:30N 68°25' E 017°26'0 0.0
2017-Jun-17 13:00N 68°25' E 017°26'0 0.0
2017-Jun-17 12:30N 68°25' E 017°26'0 0.0
2017-Jun-17 12:00N 68°25' E 017°26'0 0.0
2017-Jun-17 11:30N 68°25' E 017°26'0 0.0
2017-Jun-17 11:00N 68°25' E 017°26'0 0.0
2017-Jun-17 10:30N 68°25' E 017°26'0 0.0
2017-Jun-17 10:00N 68°25' E 017°26'0 0.0
2017-Jun-17 09:30N 68°25' E 017°26'0 0.0
2017-Jun-17 09:00N 68°25' E 017°26'0 0.0
2017-Jun-17 08:30N 68°25' E 017°26'0 0.0
2017-Jun-17 08:00N 68°25' E 017°26'1 1.5
2017-Jun-17 07:30N 68°25' E 017°24'4 8.9
2017-Jun-17 07:00N 68°26' E 017°12'510.7
2017-Jun-17 06:30N 68°26' E 016°58'713.4
2017-Jun-17 06:00N 68°26' E 016°39'714.3
2017-Jun-17 05:30N 68°24' E 016°20'713.3
2017-Jun-17 05:00N 68°22' E 016°03'510.6
2017-Jun-17 04:30N 68°18' E 015°54'714.1
2017-Jun-17 04:00N 68°13' E 015°40'713.4
2017-Jun-17 03:30N 68°11' E 015°23'713.9
2017-Jun-17 03:00N 68°07' E 015°09'714.6
2017-Jun-17 02:30N 68°03' E 014°51'612.8
2017-Jun-17 02:00N 68°00' E 014°37'510.7
2017-Jun-17 01:30N 67°57' E 014°26'611.2
2017-Jun-17 00:59N 67°52' E 014°16'611.1
2017-Jun-17 00:29N 67°48' E 014°07'511.0
2017-Jun-16 23:59N 67°44' E 013°58'510.8
2017-Jun-16 23:30N 67°40' E 013°49'610.8
2017-Jun-16 23:00N 67°35' E 013°40'611.1
2017-Jun-16 22:30N 67°31' E 013°31'611.2
2017-Jun-16 22:00N 67°27' E 013°22'611.3
2017-Jun-16 21:30N 67°22' E 013°13'611.2
2017-Jun-16 20:59N 67°18' E 013°03'3711.3
2017-Jun-16 17:41N 66°49' E 012°04'411.8
2017-Jun-16 17:22N 66°46' E 011°57'411.8
2017-Jun-16 17:00N 66°43' E 011°51'612.0
2017-Jun-16 16:30N 66°38' E 011°42'612.2
2017-Jun-16 16:00N 66°33' E 011°34'612.1
2017-Jun-16 15:29N 66°27' E 011°26'17014.3
2017-Jun-16 03:35N 63°58' E 008°09'114.7
2017-Jun-16 03:30N 63°57' E 008°08'715.0
2017-Jun-16 03:00N 63°51' E 008°00'815.2
2017-Jun-16 02:30N 63°44' E 007°52'815.2
2017-Jun-16 02:01N 63°37' E 007°43'815.2
2017-Jun-16 01:31N 63°31' E 007°35'714.8
2017-Jun-16 01:01N 63°23' E 007°35'714.9
2017-Jun-16 00:31N 63°16' E 007°38'510.0
2017-Jun-16 00:01N 63°12' E 007°45'611.2
2017-Jun-15 23:30N 63°08' E 007°37'611.9
2017-Jun-15 23:01N 63°05' E 007°26'612.2
2017-Jun-15 22:31N 63°03' E 007°13'713.6
2017-Jun-15 22:00N 63°01' E 006°59'713.5
2017-Jun-15 21:30N 62°55' E 006°50'713.7
2017-Jun-15 21:00N 62°49' E 006°58'714.3
2017-Jun-15 20:30N 62°42' E 007°01'815.1
2017-Jun-15 20:00N 62°38' E 007°15'1212.8
2017-Jun-15 19:04N 62°34' E 007°39'1 9.5
2017-Jun-15 19:00N 62°34' E 007°40'1 0.1
2017-Jun-15 10:04N 62°34' E 007°42'0 1.3
2017-Jun-15 10:00N 62°34' E 007°41'8 7.5
2017-Jun-15 08:59N 62°35' E 007°25'613.3
2017-Jun-15 08:30N 62°38' E 007°13'713.9
2017-Jun-15 07:59N 62°40' E 006°58'714.4
2017-Jun-15 07:30N 62°39' E 006°43'713.9
2017-Jun-15 07:00N 62°38' E 006°28'612.0
2017-Jun-15 06:29N 62°36' E 006°15'611.8
2017-Jun-15 06:00N 62°31' E 006°09'611.7
2017-Jun-15 05:30N 62°27' E 005°59'510.5
2017-Jun-15 05:00N 62°29' E 005°48'713.7
2017-Jun-15 04:30N 62°29' E 005°33'714.3
2017-Jun-15 04:00N 62°27' E 005°18'713.8
2017-Jun-15 03:30N 62°23' E 005°06'714.8
2017-Jun-15 03:00N 62°17' E 004°56'714.7
2017-Jun-15 02:29N 62°11' E 004°49'714.5
2017-Jun-15 02:00N 62°04' E 004°42'713.6
2017-Jun-15 01:30N 61°58' E 004°36'714.1
2017-Jun-15 01:00N 61°51' E 004°33'911.8
2017-Jun-15 00:14N 61°44' E 004°23'313.7
2017-Jun-15 00:00N 61°41' E 004°25'713.6
2017-Jun-14 23:29N 61°34' E 004°24'612.2
2017-Jun-14 23:00N 61°28' E 004°20'713.9
2017-Jun-14 22:30N 61°21' E 004°22'815.2
2017-Jun-14 22:00N 61°14' E 004°22'816.1
2017-Jun-14 21:30N 61°06' E 004°22'815.9
2017-Jun-14 21:00N 60°58' E 004°28'714.3
2017-Jun-14 20:30N 60°52' E 004°35'5 9.2
2017-Jun-14 19:59N 60°55' E 004°41'714.0
2017-Jun-14 19:31N 61°01' E 004°50'714.5
2017-Jun-14 19:00N 61°04' E 005°03'713.6
2017-Jun-14 18:30N 61°05' E 005°17'714.2
2017-Jun-14 18:00N 61°05' E 005°32'714.9
2017-Jun-14 17:30N 61°08' E 005°46'715.1
2017-Jun-14 17:01N 61°08' E 006°02'815.1
2017-Jun-14 16:30N 61°07' E 006°17'713.7
2017-Jun-14 16:00N 61°06' E 006°31'2 3.7
2017-Jun-14 15:30N 61°06' E 006°35'0 0.1
2017-Jun-14 15:00N 61°06' E 006°35'4 3.9
2017-Jun-14 13:59N 61°09' E 006°36'4 8.7
2017-Jun-14 13:31N 61°10' E 006°45'611.2
2017-Jun-14 13:00N 61°07' E 006°55'612.0
2017-Jun-14 12:30N 61°02' E 007°02'611.1
2017-Jun-14 12:00N 60°57' E 007°08'4 8.9
2017-Jun-14 11:30N 60°53' E 007°08'0 1.0
2017-Jun-14 10:59N 60°52' E 007°08'0 0.1
2017-Jun-14 10:29N 60°52' E 007°08'0 0.0
2017-Jun-14 09:59N 60°52' E 007°08'0 0.0
2017-Jun-14 09:29N 60°52' E 007°08'0 0.0
2017-Jun-14 08:59N 60°52' E 007°08'0 0.0
2017-Jun-14 08:23N 60°52' E 007°08'0 0.0
2017-Jun-14 07:59N 60°52' E 007°08'0 0.0
2017-Jun-14 07:29N 60°52' E 007°08'0 0.0
2017-Jun-14 06:59N 60°52' E 007°08'0 0.0
2017-Jun-14 06:29N 60°52' E 007°08'0 0.1
2017-Jun-14 05:59N 60°52' E 007°08'0 0.0
2017-Jun-14 05:29N 60°52' E 007°08'0 0.4
2017-Jun-14 05:00N 60°52' E 007°08'2 3.6
2017-Jun-14 04:30N 60°54' E 007°09'5 9.6
2017-Jun-14 04:00N 60°58' E 007°05'510.7
2017-Jun-14 03:30N 61°03' E 007°01'611.1
2017-Jun-14 03:00N 61°08' E 006°54'611.3
2017-Jun-14 02:30N 61°10' E 006°43'5 9.9
2017-Jun-14 02:00N 61°08' E 006°34'611.6
2017-Jun-14 01:30N 61°06' E 006°23'612.7
2017-Jun-14 01:00N 61°08' E 006°10'612.7
2017-Jun-14 00:30N 61°08' E 005°56'612.4
2017-Jun-13 23:59N 61°07' E 005°44'612.1
2017-Jun-13 23:30N 61°05' E 005°32'611.6
2017-Jun-13 23:00N 61°04' E 005°21'611.4
2017-Jun-13 22:29N 61°06' E 005°09'612.9
2017-Jun-13 22:00N 61°03' E 004°57'714.4
2017-Jun-13 21:30N 60°59' E 004°45'713.4
2017-Jun-13 21:00N 60°52' E 004°41'714.2
2017-Jun-13 20:30N 60°46' E 004°47'714.2
2017-Jun-13 20:00N 60°39' E 004°52'  

Dump ship's entire track history